Kingston, Iowa
Current Conditions -  °F | °C
As of 11:53 AM on Friday 21 Nov 2014 (Local Time) from KBRL Reporting Station
Clear Clear  
Wind Chill: 23°   Ceiling: Unl
Heat Index: 32°   Visibility: 10mi
Dew Point:   Wind: 12mph
Humidity: 38%   Direction: 160°SSE
Pressure: 30.35"   Gusts: NA
Location:  41.0155°N, 91.1055°W
Report Text: KBRL 211753Z AUTO 16010KT 10SM CLR 00/M13 A3035 RMK AO2 SLP287 T00001128 10006 21100 58018 $
Loading
Personal Weather Stations






























Interactive Weather Map New forecast layout! Learn more

10-Day Weather Forecast

Advertisements
Track Severe Weather on mobile